sensor_id;sensor_type;location;lat;lon;timestamp;P1;durP1;ratioP1;P2;durP2;ratioP2
17197;SDS011;8715;51.010;6.812;2022-07-29T00:01:44;493.35;;;474.33;;
17197;SDS011;8715;51.010;6.812;2022-07-29T00:04:09;487.55;;;468.65;;
17197;SDS011;8715;51.010;6.812;2022-07-29T00:06:35;494.88;;;475.65;;
17197;SDS011;8715;51.010;6.812;2022-07-29T00:09:00;496.33;;;476.52;;
17197;SDS011;8715;51.010;6.812;2022-07-29T00:11:26;520.67;;;500.38;;
17197;SDS011;8715;51.010;6.812;2022-07-29T00:13:51;485.85;;;466.85;;
17197;SDS011;8715;51.010;6.812;2022-07-29T00:16:16;507.98;;;488.55;;
17197;SDS011;8715;51.010;6.812;2022-07-29T00:18:42;494.88;;;475.75;;
17197;SDS011;8715;51.010;6.812;2022-07-29T00:21:12;491.60;;;472.73;;
17197;SDS011;8715;51.010;6.812;2022-07-29T00:23:38;490.98;;;472.13;;
17197;SDS011;8715;51.010;6.812;2022-07-29T00:26:06;496.85;;;477.35;;
17197;SDS011;8715;51.010;6.812;2022-07-29T00:28:35;486.55;;;467.75;;
17197;SDS011;8715;51.010;6.812;2022-07-29T00:31:06;485.08;;;465.17;;
17197;SDS011;8715;51.010;6.812;2022-07-29T00:33:35;484.50;;;465.83;;
17197;SDS011;8715;51.010;6.812;2022-07-29T00:36:00;486.08;;;466.95;;
17197;SDS011;8715;51.010;6.812;2022-07-29T00:38:29;493.23;;;473.33;;
17197;SDS011;8715;51.010;6.812;2022-07-29T00:41:00;486.15;;;466.75;;
17197;SDS011;8715;51.010;6.812;2022-07-29T00:43:31;479.58;;;460.75;;
17197;SDS011;8715;51.010;6.812;2022-07-29T00:45:59;488.50;;;469.42;;
17197;SDS011;8715;51.010;6.812;2022-07-29T00:48:33;482.92;;;463.98;;
17197;SDS011;8715;51.010;6.812;2022-07-29T00:51:00;510.58;;;489.88;;
17197;SDS011;8715;51.010;6.812;2022-07-29T00:53:32;496.63;;;476.85;;
17197;SDS011;8715;51.010;6.812;2022-07-29T00:56:03;484.98;;;465.67;;
17197;SDS011;8715;51.010;6.812;2022-07-29T00:58:32;488.75;;;468.88;;
17197;SDS011;8715;51.010;6.812;2022-07-29T01:00:59;497.50;;;477.13;;
17197;SDS011;8715;51.010;6.812;2022-07-29T01:05:58;463.27;;;445.20;;
17197;SDS011;8715;51.010;6.812;2022-07-29T01:08:31;480.38;;;461.25;;
17197;SDS011;8715;51.010;6.812;2022-07-29T01:11:00;486.42;;;466.33;;
17197;SDS011;8715;51.010;6.812;2022-07-29T01:13:29;470.35;;;451.85;;
17197;SDS011;8715;51.010;6.812;2022-07-29T01:15:56;486.48;;;467.38;;
17197;SDS011;8715;51.010;6.812;2022-07-29T01:18:37;482.67;;;463.85;;
17197;SDS011;8715;51.010;6.812;2022-07-29T01:31:31;488.97;;;468.03;;
17197;SDS011;8715;51.010;6.812;2022-07-29T01:34:06;490.13;;;470.63;;
17197;SDS011;8715;51.010;6.812;2022-07-29T01:36:35;476.65;;;457.80;;
17197;SDS011;8715;51.010;6.812;2022-07-29T01:42:44;470.58;;;452.05;;
17197;SDS011;8715;51.010;6.812;2022-07-29T01:45:12;473.13;;;454.70;;
17197;SDS011;8715;51.010;6.812;2022-07-29T01:47:54;465.95;;;447.98;;
17197;SDS011;8715;51.010;6.812;2022-07-29T01:50:26;478.17;;;459.55;;
17197;SDS011;8715;51.010;6.812;2022-07-29T01:52:56;469.58;;;451.13;;
17197;SDS011;8715;51.010;6.812;2022-07-29T01:55:25;478.15;;;459.50;;
17197;SDS011;8715;51.010;6.812;2022-07-29T01:57:53;477.00;;;458.38;;
17197;SDS011;8715;51.010;6.812;2022-07-29T02:00:21;480.45;;;461.30;;
17197;SDS011;8715;51.010;6.812;2022-07-29T02:02:47;474.15;;;455.73;;
17197;SDS011;8715;51.010;6.812;2022-07-29T02:05:14;475.58;;;457.15;;
17197;SDS011;8715;51.010;6.812;2022-07-29T02:07:41;477.05;;;458.70;;
17197;SDS011;8715;51.010;6.812;2022-07-29T02:10:11;479.33;;;460.48;;
17197;SDS011;8715;51.010;6.812;2022-07-29T02:12:37;481.15;;;462.23;;
17197;SDS011;8715;51.010;6.812;2022-07-29T02:15:04;491.90;;;472.65;;
17197;SDS011;8715;51.010;6.812;2022-07-29T02:17:35;498.85;;;478.90;;
17197;SDS011;8715;51.010;6.812;2022-07-29T02:20:09;494.10;;;473.80;;
17197;SDS011;8715;51.010;6.812;2022-07-29T02:22:35;486.40;;;467.15;;
17197;SDS011;8715;51.010;6.812;2022-07-29T02:25:02;472.77;;;454.13;;
17197;SDS011;8715;51.010;6.812;2022-07-29T02:27:29;472.33;;;454.00;;
17197;SDS011;8715;51.010;6.812;2022-07-29T02:29:57;485.77;;;466.25;;
17197;SDS011;8715;51.010;6.812;2022-07-29T02:32:25;497.55;;;478.30;;
17197;SDS011;8715;51.010;6.812;2022-07-29T02:34:52;470.77;;;452.50;;
17197;SDS011;8715;51.010;6.812;2022-07-29T02:37:18;496.48;;;477.08;;
17197;SDS011;8715;51.010;6.812;2022-07-29T02:39:44;469.38;;;450.90;;
17197;SDS011;8715;51.010;6.812;2022-07-29T02:42:15;470.77;;;452.40;;
17197;SDS011;8715;51.010;6.812;2022-07-29T02:44:41;473.15;;;454.60;;
17197;SDS011;8715;51.010;6.812;2022-07-29T02:47:10;486.92;;;467.02;;
17197;SDS011;8715;51.010;6.812;2022-07-29T02:50:00;506.45;;;483.50;;
17197;SDS011;8715;51.010;6.812;2022-07-29T02:55:13;474.73;;;456.10;;
17197;SDS011;8715;51.010;6.812;2022-07-29T02:57:49;479.10;;;459.88;;
17197;SDS011;8715;51.010;6.812;2022-07-29T03:00:19;480.98;;;462.33;;
17197;SDS011;8715;51.010;6.812;2022-07-29T03:02:46;495.05;;;475.70;;
17197;SDS011;8715;51.010;6.812;2022-07-29T03:05:17;490.42;;;471.60;;
17197;SDS011;8715;51.010;6.812;2022-07-29T03:10:26;481.92;;;462.63;;
17197;SDS011;8715;51.010;6.812;2022-07-29T03:12:52;478.13;;;459.00;;
17197;SDS011;8715;51.010;6.812;2022-07-29T03:15:22;483.55;;;464.25;;
17197;SDS011;8715;51.010;6.812;2022-07-29T03:17:47;489.60;;;470.40;;
17197;SDS011;8715;51.010;6.812;2022-07-29T03:20:14;486.90;;;467.23;;
17197;SDS011;8715;51.010;6.812;2022-07-29T03:22:40;505.25;;;485.25;;
17197;SDS011;8715;51.010;6.812;2022-07-29T03:25:11;507.88;;;487.48;;
17197;SDS011;8715;51.010;6.812;2022-07-29T03:30:06;481.17;;;461.52;;
17197;SDS011;8715;51.010;6.812;2022-07-29T03:32:32;494.88;;;474.75;;
17197;SDS011;8715;51.010;6.812;2022-07-29T03:34:58;496.58;;;476.48;;
17197;SDS011;8715;51.010;6.812;2022-07-29T03:37:24;474.08;;;454.92;;
17197;SDS011;8715;51.010;6.812;2022-07-29T03:39:49;479.75;;;461.02;;
17197;SDS011;8715;51.010;6.812;2022-07-29T03:42:16;481.98;;;462.95;;
17197;SDS011;8715;51.010;6.812;2022-07-29T03:44:45;475.25;;;456.33;;
17197;SDS011;8715;51.010;6.812;2022-07-29T03:47:13;482.02;;;463.17;;
17197;SDS011;8715;51.010;6.812;2022-07-29T03:49:40;480.05;;;461.15;;
17197;SDS011;8715;51.010;6.812;2022-07-29T03:52:06;480.65;;;461.38;;
17197;SDS011;8715;51.010;6.812;2022-07-29T03:54:31;477.98;;;458.95;;
17197;SDS011;8715;51.010;6.812;2022-07-29T03:56:57;482.35;;;463.35;;
17197;SDS011;8715;51.010;6.812;2022-07-29T03:59:25;478.58;;;459.17;;
17197;SDS011;8715;51.010;6.812;2022-07-29T04:01:51;482.67;;;463.58;;
17197;SDS011;8715;51.010;6.812;2022-07-29T04:04:16;478.42;;;459.65;;
17197;SDS011;8715;51.010;6.812;2022-07-29T04:06:44;468.33;;;449.95;;
17197;SDS011;8715;51.010;6.812;2022-07-29T04:09:10;470.73;;;451.77;;
17197;SDS011;8715;51.010;6.812;2022-07-29T04:11:36;468.40;;;449.15;;
17197;SDS011;8715;51.010;6.812;2022-07-29T04:14:03;479.42;;;460.33;;
17197;SDS011;8715;51.010;6.812;2022-07-29T04:16:29;471.40;;;452.23;;
17197;SDS011;8715;51.010;6.812;2022-07-29T04:18:54;502.15;;;482.05;;
17197;SDS011;8715;51.010;6.812;2022-07-29T04:21:20;488.92;;;468.92;;
17197;SDS011;8715;51.010;6.812;2022-07-29T04:23:45;470.23;;;451.33;;
17197;SDS011;8715;51.010;6.812;2022-07-29T04:26:14;477.10;;;458.02;;
17197;SDS011;8715;51.010;6.812;2022-07-29T04:28:39;469.85;;;450.77;;
17197;SDS011;8715;51.010;6.812;2022-07-29T04:31:07;477.13;;;458.05;;
17197;SDS011;8715;51.010;6.812;2022-07-29T04:33:35;496.85;;;476.63;;
17197;SDS011;8715;51.010;6.812;2022-07-29T04:36:01;482.98;;;463.90;;
17197;SDS011;8715;51.010;6.812;2022-07-29T04:38:26;487.85;;;468.67;;
17197;SDS011;8715;51.010;6.812;2022-07-29T04:40:51;490.13;;;470.15;;
17197;SDS011;8715;51.010;6.812;2022-07-29T04:43:17;474.88;;;455.52;;
17197;SDS011;8715;51.010;6.812;2022-07-29T04:45:42;485.17;;;464.73;;
17197;SDS011;8715;51.010;6.812;2022-07-29T04:48:08;475.38;;;455.58;;
17197;SDS011;8715;51.010;6.812;2022-07-29T04:50:33;486.80;;;466.38;;
17197;SDS011;8715;51.010;6.812;2022-07-29T04:52:58;477.75;;;457.58;;
17197;SDS011;8715;51.010;6.812;2022-07-29T04:55:24;500.00;;;479.77;;
17197;SDS011;8715;51.010;6.812;2022-07-29T04:57:50;467.40;;;448.00;;
17197;SDS011;8715;51.010;6.812;2022-07-29T05:00:15;487.30;;;467.20;;
17197;SDS011;8715;51.010;6.812;2022-07-29T05:02:41;460.88;;;441.35;;
17197;SDS011;8715;51.010;6.812;2022-07-29T05:05:06;461.45;;;442.23;;
17197;SDS011;8715;51.010;6.812;2022-07-29T05:07:32;464.55;;;444.52;;
17197;SDS011;8715;51.010;6.812;2022-07-29T05:09:57;470.60;;;450.88;;
17197;SDS011;8715;51.010;6.812;2022-07-29T05:12:23;472.63;;;453.20;;
17197;SDS011;8715;51.010;6.812;2022-07-29T05:14:49;460.05;;;440.52;;
17197;SDS011;8715;51.010;6.812;2022-07-29T05:17:14;468.67;;;449.35;;
17197;SDS011;8715;51.010;6.812;2022-07-29T05:19:40;491.33;;;470.70;;
17197;SDS011;8715;51.010;6.812;2022-07-29T05:22:06;501.83;;;480.45;;
17197;SDS011;8715;51.010;6.812;2022-07-29T05:24:31;475.13;;;455.17;;
17197;SDS011;8715;51.010;6.812;2022-07-29T05:26:57;480.83;;;460.55;;
17197;SDS011;8715;51.010;6.812;2022-07-29T05:29:22;485.25;;;465.17;;
17197;SDS011;8715;51.010;6.812;2022-07-29T05:31:47;475.20;;;455.77;;
17197;SDS011;8715;51.010;6.812;2022-07-29T05:34:13;481.67;;;461.60;;
17197;SDS011;8715;51.010;6.812;2022-07-29T05:36:38;489.52;;;468.70;;
17197;SDS011;8715;51.010;6.812;2022-07-29T05:39:03;492.10;;;471.17;;
17197;SDS011;8715;51.010;6.812;2022-07-29T05:41:31;491.98;;;469.13;;
17197;SDS011;8715;51.010;6.812;2022-07-29T05:43:57;484.85;;;464.48;;
17197;SDS011;8715;51.010;6.812;2022-07-29T05:46:23;479.58;;;460.48;;
17197;SDS011;8715;51.010;6.812;2022-07-29T05:48:48;482.38;;;462.48;;
17197;SDS011;8715;51.010;6.812;2022-07-29T05:51:14;496.52;;;476.10;;
17197;SDS011;8715;51.010;6.812;2022-07-29T05:53:39;488.20;;;468.27;;
17197;SDS011;8715;51.010;6.812;2022-07-29T05:56:05;493.40;;;472.95;;
17197;SDS011;8715;51.010;6.812;2022-07-29T05:58:30;493.50;;;472.38;;
17197;SDS011;8715;51.010;6.812;2022-07-29T06:00:56;515.72;;;494.73;;
17197;SDS011;8715;51.010;6.812;2022-07-29T06:03:24;497.77;;;475.80;;
17197;SDS011;8715;51.010;6.812;2022-07-29T06:05:50;532.95;;;511.10;;
17197;SDS011;8715;51.010;6.812;2022-07-29T06:08:15;520.95;;;499.17;;
17197;SDS011;8715;51.010;6.812;2022-07-29T06:10:40;521.83;;;500.42;;
17197;SDS011;8715;51.010;6.812;2022-07-29T06:13:06;512.90;;;491.73;;
17197;SDS011;8715;51.010;6.812;2022-07-29T06:15:31;517.25;;;495.95;;
17197;SDS011;8715;51.010;6.812;2022-07-29T06:17:57;539.38;;;516.83;;
17197;SDS011;8715;51.010;6.812;2022-07-29T06:20:22;519.67;;;497.95;;
17197;SDS011;8715;51.010;6.812;2022-07-29T06:22:47;528.40;;;507.00;;
17197;SDS011;8715;51.010;6.812;2022-07-29T06:25:13;522.17;;;500.30;;
17197;SDS011;8715;51.010;6.812;2022-07-29T06:27:38;532.13;;;509.67;;
17197;SDS011;8715;51.010;6.812;2022-07-29T06:30:04;514.63;;;493.33;;
17197;SDS011;8715;51.010;6.812;2022-07-29T06:32:32;516.92;;;495.02;;
17197;SDS011;8715;51.010;6.812;2022-07-29T06:34:57;533.95;;;512.03;;
17197;SDS011;8715;51.010;6.812;2022-07-29T06:37:23;518.67;;;497.58;;
17197;SDS011;8715;51.010;6.812;2022-07-29T06:39:48;507.20;;;486.47;;
17197;SDS011;8715;51.010;6.812;2022-07-29T06:42:33;502.20;;;480.98;;
17197;SDS011;8715;51.010;6.812;2022-07-29T06:44:59;504.00;;;483.30;;
17197;SDS011;8715;51.010;6.812;2022-07-29T06:47:24;500.05;;;479.10;;
17197;SDS011;8715;51.010;6.812;2022-07-29T06:49:50;521.00;;;499.10;;
17197;SDS011;8715;51.010;6.812;2022-07-29T06:52:15;512.20;;;491.27;;
17197;SDS011;8715;51.010;6.812;2022-07-29T06:54:40;512.97;;;491.35;;
17197;SDS011;8715;51.010;6.812;2022-07-29T06:57:12;510.33;;;488.52;;
17197;SDS011;8715;51.010;6.812;2022-07-29T06:59:38;519.78;;;497.75;;
17197;SDS011;8715;51.010;6.812;2022-07-29T07:02:03;517.60;;;496.30;;
17197;SDS011;8715;51.010;6.812;2022-07-29T07:04:28;533.42;;;511.55;;
17197;SDS011;8715;51.010;6.812;2022-07-29T07:06:54;491.63;;;471.55;;
17197;SDS011;8715;51.010;6.812;2022-07-29T07:09:20;496.83;;;475.80;;
17197;SDS011;8715;51.010;6.812;2022-07-29T07:11:47;502.38;;;481.17;;
17197;SDS011;8715;51.010;6.812;2022-07-29T07:14:12;495.63;;;475.47;;
17197;SDS011;8715;51.010;6.812;2022-07-29T07:16:37;485.63;;;464.93;;
17197;SDS011;8715;51.010;6.812;2022-07-29T07:19:03;498.27;;;477.35;;
17197;SDS011;8715;51.010;6.812;2022-07-29T07:21:28;488.75;;;468.20;;
17197;SDS011;8715;51.010;6.812;2022-07-29T07:23:54;508.50;;;487.45;;
17197;SDS011;8715;51.010;6.812;2022-07-29T07:26:19;501.52;;;481.05;;
17197;SDS011;8715;51.010;6.812;2022-07-29T07:28:44;483.98;;;464.02;;
17197;SDS011;8715;51.010;6.812;2022-07-29T07:31:10;492.67;;;471.85;;
17197;SDS011;8715;51.010;6.812;2022-07-29T07:33:36;497.25;;;476.48;;
17197;SDS011;8715;51.010;6.812;2022-07-29T07:36:01;495.65;;;475.63;;
17197;SDS011;8715;51.010;6.812;2022-07-29T07:38:27;495.40;;;474.60;;
17197;SDS011;8715;51.010;6.812;2022-07-29T07:40:53;490.90;;;470.90;;
17197;SDS011;8715;51.010;6.812;2022-07-29T07:43:18;485.65;;;465.33;;
17197;SDS011;8715;51.010;6.812;2022-07-29T07:45:43;472.38;;;452.60;;
17197;SDS011;8715;51.010;6.812;2022-07-29T07:48:09;477.43;;;457.70;;
17197;SDS011;8715;51.010;6.812;2022-07-29T07:50:35;483.92;;;463.60;;
17197;SDS011;8715;51.010;6.812;2022-07-29T07:53:01;480.50;;;460.13;;
17197;SDS011;8715;51.010;6.812;2022-07-29T07:55:27;477.67;;;458.15;;
17197;SDS011;8715;51.010;6.812;2022-07-29T07:57:53;486.50;;;466.48;;
17197;SDS011;8715;51.010;6.812;2022-07-29T08:00:19;485.75;;;465.85;;
17197;SDS011;8715;51.010;6.812;2022-07-29T08:02:45;483.58;;;463.45;;
17197;SDS011;8715;51.010;6.812;2022-07-29T08:05:10;494.10;;;473.63;;
17197;SDS011;8715;51.010;6.812;2022-07-29T08:07:40;506.23;;;484.95;;
17197;SDS011;8715;51.010;6.812;2022-07-29T08:10:06;505.55;;;484.45;;
17197;SDS011;8715;51.010;6.812;2022-07-29T08:12:31;496.48;;;476.13;;
17197;SDS011;8715;51.010;6.812;2022-07-29T08:14:57;497.20;;;477.10;;
17197;SDS011;8715;51.010;6.812;2022-07-29T08:17:22;507.83;;;487.25;;
17197;SDS011;8715;51.010;6.812;2022-07-29T08:19:47;491.43;;;471.23;;
17197;SDS011;8715;51.010;6.812;2022-07-29T08:22:13;495.13;;;474.15;;
17197;SDS011;8715;51.010;6.812;2022-07-29T08:24:39;505.23;;;484.35;;
17197;SDS011;8715;51.010;6.812;2022-07-29T08:27:20;495.75;;;475.23;;
17197;SDS011;8715;51.010;6.812;2022-07-29T08:29:46;512.30;;;490.88;;
17197;SDS011;8715;51.010;6.812;2022-07-29T08:32:12;515.80;;;494.42;;
17197;SDS011;8715;51.010;6.812;2022-07-29T08:34:37;519.70;;;498.10;;
17197;SDS011;8715;51.010;6.812;2022-07-29T08:37:02;515.40;;;494.00;;
17197;SDS011;8715;51.010;6.812;2022-07-29T08:39:27;501.77;;;480.13;;
17197;SDS011;8715;51.010;6.812;2022-07-29T08:41:53;515.50;;;493.33;;
17197;SDS011;8715;51.010;6.812;2022-07-29T08:44:19;525.25;;;504.13;;
17197;SDS011;8715;51.010;6.812;2022-07-29T08:46:46;523.22;;;501.63;;
17197;SDS011;8715;51.010;6.812;2022-07-29T08:49:12;519.10;;;497.45;;
17197;SDS011;8715;51.010;6.812;2022-07-29T08:51:41;516.35;;;494.45;;
17197;SDS011;8715;51.010;6.812;2022-07-29T08:54:08;514.80;;;493.70;;
17197;SDS011;8715;51.010;6.812;2022-07-29T08:56:34;507.90;;;486.88;;
17197;SDS011;8715;51.010;6.812;2022-07-29T08:58:59;521.15;;;499.92;;
17197;SDS011;8715;51.010;6.812;2022-07-29T09:01:28;516.20;;;495.23;;
17197;SDS011;8715;51.010;6.812;2022-07-29T09:03:55;515.53;;;494.38;;
17197;SDS011;8715;51.010;6.812;2022-07-29T09:06:21;535.92;;;514.00;;
17197;SDS011;8715;51.010;6.812;2022-07-29T09:08:47;529.45;;;507.75;;
17197;SDS011;8715;51.010;6.812;2022-07-29T09:11:13;528.92;;;506.75;;
17197;SDS011;8715;51.010;6.812;2022-07-29T09:13:39;532.72;;;510.13;;
17197;SDS011;8715;51.010;6.812;2022-07-29T09:16:05;521.85;;;500.05;;
17197;SDS011;8715;51.010;6.812;2022-07-29T09:18:34;521.92;;;500.08;;
17197;SDS011;8715;51.010;6.812;2022-07-29T09:21:04;545.75;;;523.17;;
17197;SDS011;8715;51.010;6.812;2022-07-29T09:26:34;528.20;;;506.17;;
17197;SDS011;8715;51.010;6.812;2022-07-29T09:29:01;525.03;;;503.35;;
17197;SDS011;8715;51.010;6.812;2022-07-29T09:31:34;524.65;;;503.33;;
17197;SDS011;8715;51.010;6.812;2022-07-29T09:34:04;513.38;;;492.20;;
17197;SDS011;8715;51.010;6.812;2022-07-29T09:36:30;512.65;;;490.48;;
17197;SDS011;8715;51.010;6.812;2022-07-29T09:38:58;523.13;;;501.13;;
17197;SDS011;8715;51.010;6.812;2022-07-29T09:41:24;527.13;;;505.00;;
17197;SDS011;8715;51.010;6.812;2022-07-29T09:43:56;518.35;;;496.13;;
17197;SDS011;8715;51.010;6.812;2022-07-29T09:46:22;550.65;;;527.88;;
17197;SDS011;8715;51.010;6.812;2022-07-29T09:51:34;556.05;;;532.75;;
17197;SDS011;8715;51.010;6.812;2022-07-29T09:53:59;545.00;;;522.28;;
17197;SDS011;8715;51.010;6.812;2022-07-29T09:56:43;545.60;;;522.60;;
17197;SDS011;8715;51.010;6.812;2022-07-29T09:59:09;550.60;;;526.90;;
17197;SDS011;8715;51.010;6.812;2022-07-29T10:01:36;546.83;;;523.45;;
17197;SDS011;8715;51.010;6.812;2022-07-29T10:04:01;547.00;;;523.85;;
17197;SDS011;8715;51.010;6.812;2022-07-29T10:06:27;557.90;;;534.63;;
17197;SDS011;8715;51.010;6.812;2022-07-29T10:08:53;547.30;;;524.20;;
17197;SDS011;8715;51.010;6.812;2022-07-29T10:11:18;570.92;;;546.80;;
17197;SDS011;8715;51.010;6.812;2022-07-29T10:13:47;559.15;;;535.70;;
17197;SDS011;8715;51.010;6.812;2022-07-29T10:18:40;560.65;;;536.53;;
17197;SDS011;8715;51.010;6.812;2022-07-29T10:21:09;544.15;;;521.08;;
17197;SDS011;8715;51.010;6.812;2022-07-29T10:23:35;547.50;;;524.25;;
17197;SDS011;8715;51.010;6.812;2022-07-29T10:26:01;550.83;;;527.83;;
17197;SDS011;8715;51.010;6.812;2022-07-29T10:28:29;557.97;;;534.35;;
17197;SDS011;8715;51.010;6.812;2022-07-29T10:30:59;559.88;;;536.22;;
17197;SDS011;8715;51.010;6.812;2022-07-29T10:33:39;565.05;;;540.97;;
17197;SDS011;8715;51.010;6.812;2022-07-29T10:39:24;552.17;;;528.83;;
17197;SDS011;8715;51.010;6.812;2022-07-29T10:42:13;559.42;;;533.65;;
17197;SDS011;8715;51.010;6.812;2022-07-29T10:44:45;569.75;;;545.40;;
17197;SDS011;8715;51.010;6.812;2022-07-29T10:47:19;566.92;;;543.05;;
17197;SDS011;8715;51.010;6.812;2022-07-29T10:49:58;559.30;;;535.40;;
17197;SDS011;8715;51.010;6.812;2022-07-29T10:52:24;580.35;;;555.92;;
17197;SDS011;8715;51.010;6.812;2022-07-29T10:54:52;577.22;;;551.90;;
17197;SDS011;8715;51.010;6.812;2022-07-29T10:57:25;582.78;;;557.92;;
17197;SDS011;8715;51.010;6.812;2022-07-29T11:07:24;591.90;;;567.03;;
17197;SDS011;8715;51.010;6.812;2022-07-29T11:12:54;593.35;;;568.05;;
17197;SDS011;8715;51.010;6.812;2022-07-29T11:15:20;592.93;;;567.13;;
17197;SDS011;8715;51.010;6.812;2022-07-29T11:29:23;589.63;;;564.58;;
17197;SDS011;8715;51.010;6.812;2022-07-29T11:34:19;587.65;;;562.63;;
17197;SDS011;8715;51.010;6.812;2022-07-29T11:39:31;581.08;;;555.75;;
17197;SDS011;8715;51.010;6.812;2022-07-29T11:50:11;597.17;;;571.92;;
17197;SDS011;8715;51.010;6.812;2022-07-29T11:52:38;597.45;;;571.95;;
17197;SDS011;8715;51.010;6.812;2022-07-29T11:55:10;600.20;;;574.78;;
17197;SDS011;8715;51.010;6.812;2022-07-29T11:57:44;599.13;;;573.55;;
17197;SDS011;8715;51.010;6.812;2022-07-29T12:00:21;597.75;;;572.35;;
17197;SDS011;8715;51.010;6.812;2022-07-29T12:02:50;591.60;;;566.33;;
17197;SDS011;8715;51.010;6.812;2022-07-29T12:05:16;603.05;;;577.13;;
17197;SDS011;8715;51.010;6.812;2022-07-29T12:07:42;597.95;;;572.35;;
17197;SDS011;8715;51.010;6.812;2022-07-29T12:10:07;599.10;;;573.65;;
17197;SDS011;8715;51.010;6.812;2022-07-29T12:12:33;588.60;;;563.72;;
17197;SDS011;8715;51.010;6.812;2022-07-29T12:17:38;589.40;;;564.65;;
17197;SDS011;8715;51.010;6.812;2022-07-29T12:20:04;597.70;;;572.45;;
17197;SDS011;8715;51.010;6.812;2022-07-29T12:22:31;594.42;;;568.80;;
17197;SDS011;8715;51.010;6.812;2022-07-29T12:25:08;596.38;;;571.15;;
17197;SDS011;8715;51.010;6.812;2022-07-29T12:27:34;608.78;;;582.78;;
17197;SDS011;8715;51.010;6.812;2022-07-29T12:30:05;603.95;;;577.95;;
17197;SDS011;8715;51.010;6.812;2022-07-29T12:35:05;624.60;;;597.58;;
17197;SDS011;8715;51.010;6.812;2022-07-29T12:37:33;601.28;;;575.70;;
17197;SDS011;8715;51.010;6.812;2022-07-29T12:39:59;596.03;;;570.33;;
17197;SDS011;8715;51.010;6.812;2022-07-29T12:42:24;598.67;;;573.17;;
17197;SDS011;8715;51.010;6.812;2022-07-29T12:44:50;603.67;;;577.58;;
17197;SDS011;8715;51.010;6.812;2022-07-29T12:47:16;611.08;;;585.00;;
17197;SDS011;8715;51.010;6.812;2022-07-29T12:49:43;597.72;;;572.10;;
17197;SDS011;8715;51.010;6.812;2022-07-29T12:54:54;611.53;;;585.30;;
17197;SDS011;8715;51.010;6.812;2022-07-29T12:57:19;596.05;;;569.90;;
17197;SDS011;8715;51.010;6.812;2022-07-29T12:59:45;603.35;;;576.80;;
17197;SDS011;8715;51.010;6.812;2022-07-29T13:02:22;616.92;;;589.60;;
17197;SDS011;8715;51.010;6.812;2022-07-29T13:05:00;598.90;;;572.88;;
17197;SDS011;8715;51.010;6.812;2022-07-29T13:07:26;600.03;;;574.15;;
17197;SDS011;8715;51.010;6.812;2022-07-29T13:09:54;598.35;;;572.05;;
17197;SDS011;8715;51.010;6.812;2022-07-29T13:12:34;600.60;;;575.03;;
17197;SDS011;8715;51.010;6.812;2022-07-29T13:14:59;583.40;;;558.67;;
17197;SDS011;8715;51.010;6.812;2022-07-29T13:17:25;603.17;;;576.97;;
17197;SDS011;8715;51.010;6.812;2022-07-29T13:20:06;593.08;;;567.88;;
17197;SDS011;8715;51.010;6.812;2022-07-29T13:22:37;596.67;;;571.25;;
17197;SDS011;8715;51.010;6.812;2022-07-29T13:25:03;607.55;;;581.65;;
17197;SDS011;8715;51.010;6.812;2022-07-29T13:27:30;606.88;;;580.63;;
17197;SDS011;8715;51.010;6.812;2022-07-29T13:29:59;601.45;;;575.40;;
17197;SDS011;8715;51.010;6.812;2022-07-29T13:32:26;619.90;;;593.15;;
17197;SDS011;8715;51.010;6.812;2022-07-29T13:34:52;602.65;;;576.35;;
17197;SDS011;8715;51.010;6.812;2022-07-29T13:37:18;610.60;;;584.30;;
17197;SDS011;8715;51.010;6.812;2022-07-29T13:39:44;602.28;;;575.97;;
17197;SDS011;8715;51.010;6.812;2022-07-29T13:42:10;619.63;;;591.22;;
17197;SDS011;8715;51.010;6.812;2022-07-29T13:44:38;609.38;;;582.75;;
17197;SDS011;8715;51.010;6.812;2022-07-29T13:47:03;612.20;;;585.55;;
17197;SDS011;8715;51.010;6.812;2022-07-29T13:49:29;611.30;;;584.83;;
17197;SDS011;8715;51.010;6.812;2022-07-29T13:51:55;608.58;;;582.05;;
17197;SDS011;8715;51.010;6.812;2022-07-29T13:54:20;618.75;;;590.67;;
17197;SDS011;8715;51.010;6.812;2022-07-29T13:56:45;602.70;;;576.03;;
17197;SDS011;8715;51.010;6.812;2022-07-29T13:59:11;604.53;;;578.08;;
17197;SDS011;8715;51.010;6.812;2022-07-29T14:01:36;613.38;;;586.10;;
17197;SDS011;8715;51.010;6.812;2022-07-29T14:04:02;611.47;;;584.70;;
17197;SDS011;8715;51.010;6.812;2022-07-29T14:06:28;622.70;;;595.20;;
17197;SDS011;8715;51.010;6.812;2022-07-29T14:08:53;615.78;;;588.78;;
17197;SDS011;8715;51.010;6.812;2022-07-29T14:11:18;610.53;;;583.90;;
17197;SDS011;8715;51.010;6.812;2022-07-29T14:13:44;611.80;;;585.27;;
17197;SDS011;8715;51.010;6.812;2022-07-29T14:16:09;599.63;;;573.57;;
17197;SDS011;8715;51.010;6.812;2022-07-29T14:18:35;604.90;;;578.60;;
17197;SDS011;8715;51.010;6.812;2022-07-29T14:21:00;617.63;;;591.40;;
17197;SDS011;8715;51.010;6.812;2022-07-29T14:23:25;620.72;;;593.47;;
17197;SDS011;8715;51.010;6.812;2022-07-29T14:25:51;611.58;;;585.00;;
17197;SDS011;8715;51.010;6.812;2022-07-29T14:28:16;613.38;;;586.95;;
17197;SDS011;8715;51.010;6.812;2022-07-29T14:30:42;602.77;;;576.97;;
17197;SDS011;8715;51.010;6.812;2022-07-29T14:33:08;607.30;;;581.65;;
17197;SDS011;8715;51.010;6.812;2022-07-29T14:35:33;601.60;;;575.95;;
17197;SDS011;8715;51.010;6.812;2022-07-29T14:37:58;612.80;;;586.33;;
17197;SDS011;8715;51.010;6.812;2022-07-29T14:40:24;622.00;;;595.07;;
17197;SDS011;8715;51.010;6.812;2022-07-29T14:42:50;611.72;;;585.65;;
17197;SDS011;8715;51.010;6.812;2022-07-29T14:45:16;604.13;;;578.53;;
17197;SDS011;8715;51.010;6.812;2022-07-29T14:47:41;603.30;;;577.05;;
17197;SDS011;8715;51.010;6.812;2022-07-29T14:50:06;608.50;;;582.03;;
17197;SDS011;8715;51.010;6.812;2022-07-29T14:52:32;611.08;;;585.33;;
17197;SDS011;8715;51.010;6.812;2022-07-29T14:54:57;614.13;;;587.67;;
17197;SDS011;8715;51.010;6.812;2022-07-29T14:57:23;615.95;;;589.83;;
17197;SDS011;8715;51.010;6.812;2022-07-29T14:59:48;616.30;;;589.42;;
17197;SDS011;8715;51.010;6.812;2022-07-29T15:02:14;607.17;;;580.53;;
17197;SDS011;8715;51.010;6.812;2022-07-29T15:04:39;609.33;;;583.47;;
17197;SDS011;8715;51.010;6.812;2022-07-29T15:07:04;599.70;;;574.35;;
17197;SDS011;8715;51.010;6.812;2022-07-29T15:09:30;616.35;;;589.78;;
17197;SDS011;8715;51.010;6.812;2022-07-29T15:11:55;621.97;;;595.03;;
17197;SDS011;8715;51.010;6.812;2022-07-29T15:14:20;611.42;;;584.92;;
17197;SDS011;8715;51.010;6.812;2022-07-29T15:16:46;611.50;;;585.07;;
17197;SDS011;8715;51.010;6.812;2022-07-29T15:19:11;596.25;;;570.97;;
17197;SDS011;8715;51.010;6.812;2022-07-29T15:21:36;606.22;;;580.28;;
17197;SDS011;8715;51.010;6.812;2022-07-29T15:24:02;603.05;;;577.45;;
17197;SDS011;8715;51.010;6.812;2022-07-29T15:26:28;600.75;;;575.25;;
17197;SDS011;8715;51.010;6.812;2022-07-29T15:28:53;599.63;;;574.00;;